Terminal Aerodrome Forecast
Issued by NWS

Home | Current Version | Previous Version | Graphics & Text | Print | Product List | Glossary On
Versions: 1 2 3 4 5 6 7 8 9 10 11 12 13 14 15 16 17 18 19 20
000
FTUS43 KTOP 180300 AAA
TAFMHK
TAF AMD
KMHK 180320Z 1803/1824 09005KT 4SM -SN BR OVC015
     FM180400 09004KT 1SM -SN BR OVC004
     FM180800 08004KT 5SM -SN BR OVC005=

USA.gov is the U.S. government's official web portal to all federal, state and local government web resources and services.